createdAt,value
2022-11-19T00:00:53.459Z,9.63
2022-11-19T00:01:59.912Z,9.93
2022-11-19T00:03:01.483Z,9.40
2022-11-19T00:04:07.780Z,9.45
2022-11-19T00:05:09.413Z,9.73
2022-11-19T00:06:14.220Z,10.10
2022-11-19T00:07:15.727Z,9.52
2022-11-19T00:08:20.728Z,9.20
2022-11-19T00:09:22.307Z,9.52
2022-11-19T00:10:25.783Z,9.27
2022-11-19T00:11:46.965Z,9.90
2022-11-19T00:12:54.508Z,9.30
2022-11-19T00:13:56.984Z,9.70
2022-11-19T00:14:58.490Z,9.35
2022-11-19T00:16:06.215Z,10.07
2022-11-19T00:17:09.207Z,9.15
2022-11-19T00:18:11.677Z,10.02
2022-11-19T00:19:13.250Z,9.00
2022-11-19T00:20:17.486Z,9.10
2022-11-19T00:21:19.006Z,9.00
2022-11-19T00:22:21.464Z,10.55
2022-11-19T00:23:22.995Z,8.77
2022-11-19T00:24:28.650Z,9.90
2022-11-19T00:25:30.597Z,10.27
2022-11-19T00:26:33.300Z,9.57
2022-11-19T00:27:34.849Z,8.95
2022-11-19T00:28:38.070Z,9.88
2022-11-19T00:29:39.549Z,9.20
2022-11-19T00:30:47.981Z,8.80
2022-11-19T00:31:50.212Z,9.65
2022-11-19T00:32:54.012Z,10.77
2022-11-19T00:33:55.639Z,8.60
2022-11-19T00:34:58.144Z,9.52
2022-11-19T00:36:01.168Z,8.75
2022-11-19T00:37:04.095Z,8.65
2022-11-19T00:38:06.122Z,9.25
2022-11-19T00:39:10.298Z,9.15
2022-11-19T00:40:12.699Z,8.45
2022-11-19T00:41:15.149Z,8.38
2022-11-19T00:42:16.659Z,9.48
2022-11-19T00:43:36.910Z,9.30
2022-11-19T00:44:39.371Z,9.27
2022-11-19T00:45:41.170Z,9.63
2022-11-19T00:46:43.630Z,9.40
2022-11-19T00:47:45.106Z,8.65
2022-11-19T00:48:50.176Z,9.32
2022-11-19T00:49:51.738Z,9.32
2022-11-19T00:50:54.198Z,9.10
2022-11-19T00:51:55.752Z,9.13
2022-11-19T00:52:59.442Z,8.10
2022-11-19T00:54:00.954Z,8.77
2022-11-19T00:55:03.453Z,7.60
2022-11-19T00:56:07.466Z,7.38
2022-11-19T00:57:09.926Z,7.93
2022-11-19T00:58:11.428Z,8.50
2022-11-19T00:59:13.915Z,8.10
2022-11-19T01:00:16.723Z,7.40
2022-11-19T01:01:21.120Z,8.00
2022-11-19T01:02:22.622Z,7.72
2022-11-19T01:03:25.546Z,8.23
2022-11-19T01:04:29.487Z,8.13
2022-11-19T01:05:31.146Z,8.75
2022-11-19T01:06:34.061Z,7.75
2022-11-19T01:07:35.579Z,9.13
2022-11-19T01:08:38.739Z,8.52
2022-11-19T01:09:40.237Z,8.00
2022-11-19T01:10:43.549Z,8.40
2022-11-19T01:11:46.109Z,8.10
2022-11-19T01:13:06.168Z,8.23
2022-11-19T01:14:09.032Z,7.97
2022-11-19T01:15:10.671Z,8.90
2022-11-19T01:16:15.338Z,8.60
2022-11-19T01:17:16.832Z,7.47
2022-11-19T01:18:19.947Z,7.72
2022-11-19T01:19:22.655Z,9.00
2022-11-19T01:20:25.908Z,8.60
2022-11-19T01:21:30.934Z,7.55
2022-11-19T01:22:32.489Z,8.20
2022-11-19T01:23:35.312Z,7.88
2022-11-19T01:24:36.849Z,7.95
2022-11-19T01:25:39.614Z,6.97
2022-11-19T01:26:45.822Z,8.10
2022-11-19T01:27:47.881Z,7.10
2022-11-19T01:28:51.125Z,6.50
2022-11-19T01:29:52.684Z,6.88
2022-11-19T01:30:55.198Z,6.75
2022-11-19T01:31:57.663Z,6.30
2022-11-19T01:32:59.220Z,6.13
2022-11-19T01:34:01.778Z,6.70
2022-11-19T01:35:03.868Z,6.00
2022-11-19T01:36:11.548Z,6.63
2022-11-19T01:37:13.064Z,6.00
2022-11-19T01:38:15.543Z,5.57
2022-11-19T01:39:17.350Z,6.43
2022-11-19T01:40:20.188Z,6.72
2022-11-19T01:41:24.849Z,5.95
2022-11-19T01:42:47.812Z,5.55
2022-11-19T01:43:52.151Z,5.93
2022-11-19T01:45:01.005Z,6.20
2022-11-19T01:46:03.486Z,6.00
2022-11-19T01:47:05.094Z,5.97
2022-11-19T01:48:13.210Z,7.25
2022-11-19T01:49:18.935Z,6.00
2022-11-19T01:50:21.463Z,6.35
2022-11-19T01:51:29.115Z,6.28
2022-11-19T01:52:30.793Z,5.78
2022-11-19T01:53:35.690Z,6.97
2022-11-19T01:54:44.535Z,6.57
2022-11-19T01:55:47.522Z,6.65
2022-11-19T01:56:50.064Z,6.55
2022-11-19T01:57:55.337Z,5.80
2022-11-19T01:59:01.172Z,6.68
2022-11-19T02:00:03.203Z,6.65
2022-11-19T02:01:10.589Z,5.72
2022-11-19T02:02:12.761Z,6.68
2022-11-19T02:03:16.457Z,6.00
2022-11-19T02:04:19.049Z,6.57
2022-11-19T02:05:21.931Z,6.75
2022-11-19T02:06:24.834Z,5.65
2022-11-19T02:07:29.340Z,6.18
2022-11-19T02:08:41.919Z,6.68
2022-11-19T02:09:45.259Z,6.90
2022-11-19T02:11:00.491Z,7.00
2022-11-19T02:12:14.868Z,6.20
2022-11-19T02:13:26.958Z,7.65
2022-11-19T02:14:50.512Z,6.20
2022-11-19T02:16:03.877Z,6.65
2022-11-19T02:17:16.306Z,6.60
2022-11-19T02:18:40.018Z,6.47
2022-11-19T02:20:20.604Z,6.57
2022-11-19T02:21:33.513Z,6.93
2022-11-19T02:22:56.441Z,7.00
2022-11-19T02:24:25.256Z,5.97
2022-11-19T02:25:44.648Z,6.75
2022-11-19T02:27:20.343Z,6.50
2022-11-19T02:28:31.994Z,8.57
2022-11-19T02:30:02.410Z,7.47
2022-11-19T02:31:12.563Z,7.95
2022-11-19T02:32:16.416Z,8.43
2022-11-19T02:33:26.552Z,6.68
2022-11-19T02:34:33.631Z,7.50
2022-11-19T02:35:50.572Z,7.95
2022-11-19T02:36:59.195Z,8.55
2022-11-19T02:38:05.915Z,7.43
2022-11-19T02:39:15.727Z,7.88
2022-11-19T02:40:24.260Z,7.90
2022-11-19T02:41:34.373Z,7.55
2022-11-19T02:42:45.221Z,7.68
2022-11-19T02:43:47.966Z,7.43
2022-11-19T02:44:59.678Z,8.65
2022-11-19T02:46:06.798Z,7.55
2022-11-19T02:47:13.587Z,8.60
2022-11-19T02:48:21.706Z,9.80
2022-11-19T02:49:29.624Z,9.57
2022-11-19T02:50:34.767Z,10.70
2022-11-19T02:51:37.340Z,10.82
2022-11-19T02:52:39.518Z,11.27
2022-11-19T02:53:42.269Z,10.73
2022-11-19T02:54:43.984Z,11.25
2022-11-19T02:56:08.548Z,12.02
2022-11-19T02:57:11.751Z,11.75
2022-11-19T02:58:32.708Z,12.48
2022-11-19T02:59:58.812Z,11.95
2022-11-19T03:01:21.335Z,12.15
2022-11-19T03:02:46.158Z,11.52
2022-11-19T03:04:07.542Z,12.30
2022-11-19T03:05:13.799Z,11.43
2022-11-19T03:06:18.847Z,11.52
2022-11-19T03:07:21.657Z,11.35
2022-11-19T03:08:24.682Z,11.65
2022-11-19T03:09:27.472Z,10.52
2022-11-19T03:10:43.226Z,11.02
2022-11-19T03:11:52.006Z,12.25
2022-11-19T03:12:59.632Z,12.00
2022-11-19T03:14:32.496Z,10.98
2022-11-19T03:16:12.276Z,10.60
2022-11-19T03:17:21.367Z,11.88
2022-11-19T03:18:32.012Z,12.38
2022-11-19T03:19:37.177Z,11.13
2022-11-19T03:20:42.518Z,11.48
2022-11-19T03:21:49.971Z,12.35
2022-11-19T03:22:55.734Z,11.32
2022-11-19T03:24:02.564Z,11.70
2022-11-19T03:25:10.701Z,10.95
2022-11-19T03:26:20.252Z,12.40
2022-11-19T03:27:26.847Z,13.23
2022-11-19T03:28:35.732Z,12.70
2022-11-19T03:29:42.484Z,12.80
2022-11-19T03:30:45.945Z,14.20
2022-11-19T03:31:52.495Z,14.70
2022-11-19T03:33:02.007Z,11.30
2022-11-19T03:34:10.514Z,13.82
2022-11-19T03:35:17.260Z,13.10
2022-11-19T03:36:24.217Z,14.00
2022-11-19T03:37:29.342Z,12.82
2022-11-19T03:38:35.822Z,14.00
2022-11-19T03:39:38.681Z,13.68
2022-11-19T03:40:43.118Z,14.15
2022-11-19T03:41:47.896Z,13.60
2022-11-19T03:42:53.963Z,13.80
2022-11-19T03:44:00.487Z,12.65
2022-11-19T03:45:08.280Z,13.05
2022-11-19T03:46:14.605Z,12.88
2022-11-19T03:47:20.958Z,13.02
2022-11-19T03:48:25.811Z,13.52
2022-11-19T03:49:32.880Z,15.02
2022-11-19T03:50:40.784Z,13.73
2022-11-19T03:51:49.325Z,13.52
2022-11-19T03:52:51.134Z,13.65
2022-11-19T03:53:54.268Z,13.35
2022-11-19T03:54:56.808Z,13.10
2022-11-19T03:56:02.011Z,13.52
2022-11-19T03:57:06.619Z,13.50
2022-11-19T03:58:10.631Z,14.32
2022-11-19T03:59:13.798Z,13.55
2022-11-19T04:00:16.564Z,13.80
2022-11-19T04:01:19.146Z,15.15
2022-11-19T04:02:21.180Z,14.30
2022-11-19T04:03:25.023Z,13.70
2022-11-19T04:04:36.817Z,13.57
2022-11-19T04:05:39.322Z,14.15
2022-11-19T04:06:40.847Z,15.07
2022-11-19T04:07:43.348Z,14.32
2022-11-19T04:08:44.819Z,13.45
2022-11-19T04:09:47.441Z,13.68
2022-11-19T04:10:49.018Z,15.15
2022-11-19T04:12:52.021Z,15.02
2022-11-19T04:13:54.522Z,16.30
2022-11-19T04:14:57.014Z,14.93
2022-11-19T04:15:58.525Z,14.55
2022-11-19T04:17:01.196Z,16.70
2022-11-19T04:18:02.701Z,16.10
2022-11-19T04:19:06.875Z,15.45
2022-11-19T04:20:10.432Z,16.42
2022-11-19T04:21:11.944Z,13.88
2022-11-19T04:22:14.560Z,15.85
2022-11-19T04:23:16.046Z,15.70
2022-11-19T04:24:18.818Z,15.55
2022-11-19T04:25:20.399Z,15.38
2022-11-19T04:26:22.960Z,16.08
2022-11-19T04:27:24.444Z,16.77
2022-11-19T04:28:26.892Z,14.93
2022-11-19T04:29:28.483Z,16.80
2022-11-19T04:30:30.982Z,16.00
2022-11-19T04:31:33.163Z,16.58
2022-11-19T04:32:35.641Z,16.52
2022-11-19T04:33:37.152Z,15.32
2022-11-19T04:34:40.944Z,17.27
2022-11-19T04:35:44.690Z,18.60
2022-11-19T04:36:47.611Z,16.35
2022-11-19T04:37:49.295Z,16.92
2022-11-19T04:38:53.970Z,19.23
2022-11-19T04:39:55.461Z,16.52
2022-11-19T04:40:58.185Z,18.63
2022-11-19T04:41:59.718Z,19.05
2022-11-19T04:43:02.247Z,17.88
2022-11-19T04:44:04.158Z,17.73
2022-11-19T04:45:07.691Z,18.10
2022-11-19T04:46:09.273Z,16.90
2022-11-19T04:47:11.827Z,16.90
2022-11-19T04:48:13.353Z,18.30
2022-11-19T04:49:15.967Z,16.35
2022-11-19T04:50:18.843Z,16.27
2022-11-19T04:51:21.355Z,17.65
2022-11-19T04:52:22.874Z,17.60
2022-11-19T04:53:25.370Z,18.00
2022-11-19T04:54:26.979Z,18.05
2022-11-19T04:55:29.425Z,17.65
2022-11-19T04:56:30.927Z,17.05
2022-11-19T04:57:33.417Z,17.38
2022-11-19T04:58:35.325Z,16.55
2022-11-19T04:59:37.804Z,15.38
2022-11-19T05:00:39.355Z,18.27
2022-11-19T05:01:42.839Z,16.33
2022-11-19T05:02:44.488Z,19.40
2022-11-19T05:03:47.240Z,16.70
2022-11-19T05:04:48.750Z,16.65
2022-11-19T05:05:52.680Z,17.20
2022-11-19T05:06:54.341Z,18.23
2022-11-19T05:07:56.910Z,18.10
2022-11-19T05:08:58.468Z,16.27
2022-11-19T05:10:00.961Z,16.17
2022-11-19T05:11:02.500Z,16.58
2022-11-19T05:12:05.666Z,16.40
2022-11-19T05:13:07.154Z,16.42
2022-11-19T05:14:09.839Z,16.95
2022-11-19T05:15:11.557Z,16.75
2022-11-19T05:16:14.140Z,15.63
2022-11-19T05:17:15.668Z,17.02
2022-11-19T05:18:18.131Z,18.30
2022-11-19T05:19:19.889Z,15.68
2022-11-19T05:20:22.655Z,17.55
2022-11-19T05:21:25.516Z,17.20
2022-11-19T05:22:28.014Z,17.70
2022-11-19T05:23:29.536Z,17.38
2022-11-19T05:24:32.091Z,17.25
2022-11-19T05:25:33.629Z,16.85
2022-11-19T05:26:36.243Z,16.92
2022-11-19T05:27:37.782Z,17.50
2022-11-19T05:28:40.378Z,16.92
2022-11-19T05:29:41.970Z,17.95
2022-11-19T05:30:44.555Z,16.88
2022-11-19T05:31:46.037Z,16.63
2022-11-19T05:32:48.871Z,17.55
2022-11-19T05:33:50.386Z,16.92
2022-11-19T05:34:52.870Z,17.27
2022-11-19T05:35:54.392Z,17.20
2022-11-19T05:36:58.419Z,16.98
2022-11-19T05:38:00.141Z,18.63
2022-11-19T05:39:02.661Z,16.45
2022-11-19T05:40:05.481Z,18.17
2022-11-19T05:41:08.000Z,18.10
2022-11-19T05:42:09.518Z,18.02
2022-11-19T05:43:12.011Z,17.45
2022-11-19T05:44:13.550Z,18.17
2022-11-19T05:45:16.175Z,17.67
2022-11-19T05:46:17.691Z,17.77
2022-11-19T05:47:20.205Z,17.25
2022-11-19T05:48:22.652Z,17.27
2022-11-19T05:49:24.181Z,17.38
2022-11-19T05:50:26.786Z,19.02
2022-11-19T05:51:28.424Z,18.70
2022-11-19T05:52:32.468Z,16.85
2022-11-19T05:53:34.052Z,17.13
2022-11-19T05:54:36.690Z,17.35
2022-11-19T05:55:38.211Z,16.17
2022-11-19T05:56:40.777Z,17.73
2022-11-19T05:57:42.653Z,18.30
2022-11-19T05:58:45.129Z,16.75
2022-11-19T05:59:46.643Z,17.65
2022-11-19T06:00:49.177Z,17.73
2022-11-19T06:01:50.746Z,20.08
2022-11-19T06:02:53.315Z,18.58
2022-11-19T06:03:55.302Z,18.05
2022-11-19T06:04:58.310Z,18.58
2022-11-19T06:06:00.258Z,18.80
2022-11-19T06:07:02.754Z,16.73
2022-11-19T06:08:05.908Z,18.90
2022-11-19T06:09:08.685Z,20.00
2022-11-19T06:10:10.840Z,17.75
2022-11-19T06:11:33.680Z,18.38
2022-11-19T06:12:35.309Z,18.45
2022-11-19T06:13:37.786Z,17.65
2022-11-19T06:14:39.333Z,18.48
2022-11-19T06:15:41.800Z,18.45
2022-11-19T06:16:43.551Z,19.40
2022-11-19T06:17:45.996Z,17.75
2022-11-19T06:18:47.487Z,18.38
2022-11-19T06:19:49.963Z,17.55
2022-11-19T06:20:51.562Z,18.83
2022-11-19T06:21:54.676Z,20.58
2022-11-19T06:22:56.455Z,19.90
2022-11-19T06:24:00.335Z,18.50
2022-11-19T06:25:01.923Z,18.92
2022-11-19T06:26:04.418Z,18.15
2022-11-19T06:27:05.946Z,17.92
2022-11-19T06:28:08.401Z,18.85
2022-11-19T06:29:11.329Z,19.75
2022-11-19T06:30:16.035Z,19.52
2022-11-19T06:31:17.894Z,19.33
2022-11-19T06:32:20.482Z,17.83
2022-11-19T06:33:22.011Z,19.70
2022-11-19T06:34:24.521Z,17.70
2022-11-19T06:35:26.005Z,17.88
2022-11-19T06:36:33.719Z,20.05
2022-11-19T06:37:39.912Z,19.73
2022-11-19T06:38:41.976Z,18.95
2022-11-19T06:39:45.784Z,18.80
2022-11-19T06:40:47.499Z,18.65
2022-11-19T06:41:49.974Z,19.77
2022-11-19T06:42:51.497Z,18.13
2022-11-19T06:43:53.965Z,19.70
2022-11-19T06:44:55.498Z,19.25
2022-11-19T06:45:58.038Z,18.23
2022-11-19T06:46:59.577Z,16.83
2022-11-19T06:48:02.125Z,18.85
2022-11-19T06:49:05.626Z,19.20
2022-11-19T06:50:10.012Z,19.13
2022-11-19T06:51:11.617Z,18.38
2022-11-19T06:52:14.099Z,19.45
2022-11-19T06:53:15.791Z,20.98
2022-11-19T06:54:18.279Z,18.65
2022-11-19T06:55:21.287Z,19.90
2022-11-19T06:56:23.791Z,19.65
2022-11-19T06:57:25.377Z,20.15
2022-11-19T06:58:28.506Z,19.50
2022-11-19T06:59:30.090Z,20.10
2022-11-19T07:00:32.919Z,20.50
2022-11-19T07:01:34.592Z,18.73
2022-11-19T07:02:37.686Z,19.60
2022-11-19T07:03:39.188Z,20.10
2022-11-19T07:04:41.725Z,20.35
2022-11-19T07:05:43.379Z,19.05
2022-11-19T07:06:46.090Z,19.65
2022-11-19T07:07:47.613Z,20.48
2022-11-19T07:08:50.140Z,19.95
2022-11-19T07:09:51.653Z,19.70
2022-11-19T07:10:56.439Z,19.75
2022-11-19T07:11:58.087Z,20.25
2022-11-19T07:13:00.710Z,19.50
2022-11-19T07:14:03.773Z,20.13
2022-11-19T07:15:06.893Z,19.00
2022-11-19T07:16:08.655Z,20.25
2022-11-19T07:17:11.144Z,20.45
2022-11-19T07:18:13.022Z,21.23
2022-11-19T07:19:15.550Z,20.38
2022-11-19T07:20:17.584Z,18.27
2022-11-19T07:21:20.141Z,20.00
2022-11-19T07:22:22.636Z,19.77
2022-11-19T07:23:24.164Z,19.20
2022-11-19T07:24:26.660Z,20.05
2022-11-19T07:25:29.212Z,20.77
2022-11-19T07:26:33.240Z,21.77
2022-11-19T07:27:35.789Z,20.35
2022-11-19T07:28:37.283Z,20.42
2022-11-19T07:29:39.819Z,22.13
2022-11-19T07:30:41.305Z,20.52
2022-11-19T07:31:45.727Z,22.10
2022-11-19T07:32:47.331Z,20.63
2022-11-19T07:33:49.903Z,19.85
2022-11-19T07:34:51.445Z,22.35
2022-11-19T07:35:53.907Z,20.92
2022-11-19T07:36:56.419Z,21.55
2022-11-19T07:37:57.935Z,21.25
2022-11-19T07:39:00.409Z,20.52
2022-11-19T07:40:02.197Z,21.52
2022-11-19T07:41:27.169Z,22.80
2022-11-19T07:42:48.590Z,20.88
2022-11-19T07:43:50.432Z,21.77
2022-11-19T07:44:54.953Z,22.42
2022-11-19T07:45:57.742Z,21.15
2022-11-19T07:47:00.412Z,20.35
2022-11-19T07:48:01.938Z,21.90
2022-11-19T07:49:04.643Z,20.27
2022-11-19T07:50:07.077Z,23.23
2022-11-19T07:51:09.615Z,21.17
2022-11-19T07:52:11.091Z,20.42
2022-11-19T07:53:13.532Z,22.30
2022-11-19T07:54:15.191Z,22.90
2022-11-19T07:55:17.905Z,21.48
2022-11-19T07:56:20.281Z,21.25
2022-11-19T07:57:29.665Z,20.98
2022-11-19T07:58:33.055Z,20.67
2022-11-19T07:59:35.588Z,21.35
2022-11-19T08:00:37.138Z,20.92
2022-11-19T08:01:39.826Z,20.23
2022-11-19T08:02:42.351Z,20.83
2022-11-19T08:03:46.097Z,21.58
2022-11-19T08:04:48.611Z,20.90
2022-11-19T08:05:50.176Z,20.80
2022-11-19T08:06:52.652Z,22.48
2022-11-19T08:07:54.178Z,21.70
2022-11-19T08:08:57.586Z,22.38
2022-11-19T08:09:59.091Z,21.67
2022-11-19T08:11:05.064Z,19.95
2022-11-19T08:12:06.976Z,19.98
2022-11-19T08:13:09.439Z,21.85
2022-11-19T08:14:13.193Z,21.63
2022-11-19T08:15:15.916Z,22.98
2022-11-19T08:16:39.090Z,23.40
2022-11-19T08:17:59.373Z,21.85
2022-11-19T08:19:02.352Z,22.40
2022-11-19T08:20:04.923Z,22.10
2022-11-19T08:21:09.403Z,23.90
2022-11-19T08:22:11.269Z,21.63
2022-11-19T08:23:13.746Z,21.00
2022-11-19T08:24:18.119Z,19.42
2022-11-19T08:25:20.934Z,20.33
2022-11-19T08:26:23.714Z,22.05
2022-11-19T08:27:26.346Z,20.50
2022-11-19T08:28:27.994Z,19.90
2022-11-19T08:29:31.889Z,20.00
2022-11-19T08:30:34.541Z,21.42
2022-11-19T08:31:37.169Z,20.48
2022-11-19T08:32:39.647Z,21.98
2022-11-19T08:33:42.201Z,20.70
2022-11-19T08:34:44.726Z,19.85
2022-11-19T08:35:46.419Z,20.27
2022-11-19T08:36:48.967Z,20.95
2022-11-19T08:37:51.300Z,20.83
2022-11-19T08:38:53.789Z,20.17
2022-11-19T08:39:56.269Z,21.70
2022-11-19T08:41:12.831Z,20.80
2022-11-19T08:42:32.749Z,21.95
2022-11-19T08:43:35.266Z,19.73
2022-11-19T08:44:38.349Z,21.83
2022-11-19T08:45:40.886Z,22.20
2022-11-19T08:46:42.467Z,20.75
2022-11-19T08:47:44.974Z,21.25
2022-11-19T08:48:46.631Z,20.92
2022-11-19T08:49:49.143Z,21.23
2022-11-19T08:50:50.657Z,20.25
2022-11-19T08:51:53.559Z,23.50
2022-11-19T08:52:57.019Z,21.20
2022-11-19T08:53:59.512Z,21.17
2022-11-19T08:55:02.063Z,22.52
2022-11-19T08:56:03.770Z,22.08
2022-11-19T08:57:06.528Z,21.50
2022-11-19T08:58:08.230Z,21.27
2022-11-19T08:59:10.744Z,21.65
2022-11-19T09:00:15.257Z,21.05
2022-11-19T09:01:18.597Z,21.90
2022-11-19T09:02:21.123Z,18.77
2022-11-19T09:03:22.760Z,19.00
2022-11-19T09:04:25.313Z,20.52
2022-11-19T09:05:27.328Z,18.38
2022-11-19T09:06:29.881Z,19.13
2022-11-19T09:07:31.460Z,19.83
2022-11-19T09:08:34.550Z,19.80
2022-11-19T09:09:37.018Z,18.95
2022-11-19T09:10:39.104Z,19.98
2022-11-19T09:11:43.072Z,21.52
2022-11-19T09:12:45.750Z,20.63
2022-11-19T09:13:47.321Z,19.20
2022-11-19T09:14:50.396Z,21.35
2022-11-19T09:15:54.255Z,18.95
2022-11-19T09:16:55.788Z,19.08
2022-11-19T09:17:58.331Z,17.90
2022-11-19T09:19:02.072Z,19.58
2022-11-19T09:20:04.753Z,21.13
2022-11-19T09:21:08.401Z,18.75
2022-11-19T09:22:10.911Z,18.25
2022-11-19T09:23:13.979Z,20.83
2022-11-19T09:24:16.562Z,18.20
2022-11-19T09:25:18.071Z,19.33
2022-11-19T09:26:20.906Z,18.23
2022-11-19T09:27:22.466Z,18.30
2022-11-19T09:28:25.013Z,19.17
2022-11-19T09:29:27.560Z,19.35
2022-11-19T09:30:29.376Z,17.15
2022-11-19T09:31:33.432Z,18.30
2022-11-19T09:32:36.007Z,18.85
2022-11-19T09:33:42.003Z,19.55
2022-11-19T09:34:44.649Z,18.42
2022-11-19T09:35:46.258Z,17.55
2022-11-19T09:36:48.748Z,18.40
2022-11-19T09:37:50.283Z,19.70
2022-11-19T09:38:57.915Z,18.00
2022-11-19T09:39:59.583Z,17.80
2022-11-19T09:41:19.866Z,17.98
2022-11-19T09:42:28.871Z,16.63
2022-11-19T09:43:40.205Z,17.20
2022-11-19T09:45:04.560Z,17.38
2022-11-19T09:46:15.173Z,17.45
2022-11-19T09:47:27.103Z,17.50
2022-11-19T09:48:34.902Z,16.40
2022-11-19T09:49:42.333Z,18.75
2022-11-19T09:50:53.529Z,17.08
2022-11-19T09:52:00.350Z,17.23
2022-11-19T09:53:07.121Z,16.95
2022-11-19T09:54:15.347Z,16.65
2022-11-19T09:55:22.017Z,17.42
2022-11-19T09:56:28.618Z,16.95
2022-11-19T09:57:37.643Z,18.17
2022-11-19T09:58:42.146Z,17.70
2022-11-19T09:59:44.779Z,17.00
2022-11-19T10:00:46.469Z,18.25
2022-11-19T10:01:48.987Z,16.77
2022-11-19T10:02:53.356Z,14.93
2022-11-19T10:03:56.120Z,17.25
2022-11-19T10:04:58.550Z,16.95
2022-11-19T10:06:19.566Z,16.77
2022-11-19T10:07:31.828Z,17.60
2022-11-19T10:08:55.961Z,18.13
2022-11-19T10:10:13.004Z,16.17
2022-11-19T10:11:32.626Z,17.58
2022-11-19T10:13:11.510Z,17.15
2022-11-19T10:14:34.797Z,16.98
2022-11-19T10:15:42.581Z,17.27
2022-11-19T10:16:58.018Z,19.23
2022-11-19T10:18:11.323Z,17.77
2022-11-19T10:19:26.109Z,17.63
2022-11-19T10:21:00.444Z,17.92
2022-11-19T10:22:10.316Z,16.80
2022-11-19T10:23:17.415Z,18.58
2022-11-19T10:24:28.892Z,18.15
2022-11-19T10:25:36.793Z,16.25
2022-11-19T10:26:40.815Z,18.73
2022-11-19T10:27:48.938Z,17.52
2022-11-19T10:28:57.011Z,17.85
2022-11-19T10:30:02.737Z,17.92
2022-11-19T10:31:08.549Z,17.33
2022-11-19T10:32:21.860Z,18.45
2022-11-19T10:33:30.640Z,15.85
2022-11-19T10:34:36.995Z,16.63
2022-11-19T10:35:43.627Z,17.48
2022-11-19T10:36:47.950Z,18.92
2022-11-19T10:37:56.902Z,17.88
2022-11-19T10:39:04.547Z,18.83
2022-11-19T10:40:13.252Z,18.98
2022-11-19T10:41:20.323Z,17.77
2022-11-19T10:42:28.545Z,19.05
2022-11-19T10:43:35.649Z,18.90
2022-11-19T10:44:43.537Z,18.30
2022-11-19T10:45:45.054Z,18.70
2022-11-19T10:46:50.024Z,18.25
2022-11-19T10:47:57.961Z,17.80
2022-11-19T10:49:02.466Z,18.63
2022-11-19T10:50:09.873Z,17.45
2022-11-19T10:51:17.659Z,18.92
2022-11-19T10:52:26.034Z,18.30
2022-11-19T10:53:33.272Z,18.42
2022-11-19T10:54:36.843Z,18.35
2022-11-19T10:55:42.678Z,17.73
2022-11-19T10:56:44.461Z,17.95
2022-11-19T10:57:49.604Z,16.92
2022-11-19T10:58:55.998Z,16.35
2022-11-19T10:59:58.991Z,18.30
2022-11-19T11:01:03.559Z,17.77
2022-11-19T11:02:26.481Z,18.58
2022-11-19T11:03:35.537Z,15.73
2022-11-19T11:05:02.883Z,17.80
2022-11-19T11:06:09.772Z,15.50
2022-11-19T11:07:12.469Z,17.00
2022-11-19T11:08:15.290Z,17.13
2022-11-19T11:09:29.989Z,16.40
2022-11-19T11:10:35.930Z,16.48
2022-11-19T11:11:57.217Z,16.27
2022-11-19T11:13:24.679Z,16.50
2022-11-19T11:14:50.295Z,16.80
2022-11-19T11:15:53.331Z,16.52
2022-11-19T11:16:54.988Z,17.05
2022-11-19T11:18:03.031Z,16.33
2022-11-19T11:19:13.527Z,16.65
2022-11-19T11:20:28.257Z,17.15
2022-11-19T11:21:35.589Z,17.08
2022-11-19T11:22:37.632Z,15.90
2022-11-19T11:23:50.717Z,15.60
2022-11-19T11:24:53.372Z,15.55
2022-11-19T11:26:02.822Z,15.77
2022-11-19T11:27:21.693Z,14.85
2022-11-19T11:28:23.951Z,15.05
2022-11-19T11:29:27.710Z,16.05
2022-11-19T11:30:29.500Z,13.48
2022-11-19T11:31:50.048Z,14.52
2022-11-19T11:32:51.692Z,14.90
2022-11-19T11:33:56.697Z,14.45
2022-11-19T11:35:05.099Z,13.98
2022-11-19T11:36:13.503Z,16.88
2022-11-19T11:37:16.212Z,15.93
2022-11-19T11:38:22.118Z,15.75
2022-11-19T11:39:27.882Z,15.85
2022-11-19T11:40:30.423Z,15.18
2022-11-19T11:42:04.916Z,13.77
2022-11-19T11:43:03.734Z,14.40
2022-11-19T11:44:08.508Z,15.10
2022-11-19T11:45:23.492Z,15.60
2022-11-19T11:46:25.046Z,14.30
2022-11-19T11:47:30.279Z,15.07
2022-11-19T11:48:36.959Z,14.52
2022-11-19T11:49:42.340Z,13.50
2022-11-19T11:50:45.746Z,12.57
2022-11-19T11:52:07.213Z,12.93
2022-11-19T11:53:10.593Z,14.30
2022-11-19T11:54:18.742Z,14.40
2022-11-19T11:55:32.443Z,14.20
2022-11-19T11:56:34.016Z,15.32
2022-11-19T11:57:38.124Z,14.00
2022-11-19T11:58:39.638Z,13.75
2022-11-19T11:59:42.403Z,15.73
2022-11-19T12:00:45.643Z,14.38
2022-11-19T12:01:54.598Z,15.30
2022-11-19T12:03:00.507Z,14.02
2022-11-19T12:04:03.825Z,14.93
2022-11-19T12:05:10.785Z,14.48
2022-11-19T12:06:17.554Z,15.75
2022-11-19T12:07:44.837Z,13.27
2022-11-19T12:08:54.144Z,15.25
2022-11-19T12:10:04.163Z,13.15
2022-11-19T12:11:13.871Z,14.57
2022-11-19T12:12:28.330Z,14.70
2022-11-19T12:13:50.115Z,15.10
2022-11-19T12:14:59.641Z,14.63
2022-11-19T12:16:09.731Z,14.95
2022-11-19T12:17:24.658Z,14.02
2022-11-19T12:18:37.371Z,15.15
2022-11-19T12:19:55.495Z,14.55
2022-11-19T12:21:10.238Z,15.50
2022-11-19T12:22:25.396Z,14.80
2022-11-19T12:23:46.306Z,15.50
2022-11-19T12:25:00.273Z,15.00
2022-11-19T12:26:14.912Z,14.85
2022-11-19T12:27:26.098Z,14.45
2022-11-19T12:28:47.168Z,13.25
2022-11-19T12:29:57.976Z,13.95
2022-11-19T12:31:15.288Z,16.50
2022-11-19T12:32:32.449Z,14.52
2022-11-19T12:34:02.014Z,15.43
2022-11-19T12:35:17.677Z,15.35
2022-11-19T12:36:25.300Z,13.32
2022-11-19T12:37:43.300Z,15.80
2022-11-19T12:38:56.976Z,14.80
2022-11-19T12:40:04.544Z,14.38
2022-11-19T12:41:40.877Z,16.80
2022-11-19T12:42:52.311Z,14.90
2022-11-19T12:43:57.767Z,16.13
2022-11-19T12:45:07.252Z,15.50
2022-11-19T12:46:19.615Z,15.23
2022-11-19T12:47:34.402Z,14.10
2022-11-19T12:48:53.202Z,14.73
2022-11-19T12:50:18.604Z,13.75
2022-11-19T12:51:32.552Z,14.35
2022-11-19T12:53:07.392Z,13.40
2022-11-19T12:54:41.458Z,12.80
2022-11-19T12:55:55.141Z,14.02
2022-11-19T12:57:09.910Z,13.55
2022-11-19T12:58:23.048Z,14.27
2022-11-19T12:59:43.776Z,13.32
2022-11-19T13:00:52.391Z,14.57
2022-11-19T13:01:56.289Z,13.48
2022-11-19T13:03:12.166Z,13.52
2022-11-19T13:04:21.232Z,13.00
2022-11-19T13:05:34.232Z,12.60
2022-11-19T13:06:42.504Z,13.23
2022-11-19T13:07:49.316Z,14.20
2022-11-19T13:08:56.063Z,14.55
2022-11-19T13:10:03.467Z,12.65
2022-11-19T13:11:12.446Z,13.88
2022-11-19T13:12:19.228Z,12.45
2022-11-19T13:13:27.275Z,12.70
2022-11-19T13:14:35.688Z,12.68
2022-11-19T13:15:40.934Z,12.80
2022-11-19T13:16:44.029Z,12.90
2022-11-19T13:17:50.966Z,13.05
2022-11-19T13:19:05.999Z,13.57
2022-11-19T13:20:15.111Z,12.80
2022-11-19T13:21:27.520Z,13.43
2022-11-19T13:22:33.011Z,13.45
2022-11-19T13:23:41.078Z,13.20
2022-11-19T13:24:46.701Z,13.48
2022-11-19T13:25:57.361Z,12.77
2022-11-19T13:27:03.419Z,13.27
2022-11-19T13:28:17.764Z,12.60
2022-11-19T13:29:33.529Z,13.15
2022-11-19T13:30:35.824Z,13.93
2022-11-19T13:31:44.583Z,13.25
2022-11-19T13:32:53.419Z,11.77
2022-11-19T13:34:00.053Z,12.70
2022-11-19T13:35:12.579Z,13.38
2022-11-19T13:36:20.652Z,13.88
2022-11-19T13:37:35.341Z,13.38
2022-11-19T13:38:44.801Z,12.02
2022-11-19T13:39:50.847Z,13.13
2022-11-19T13:41:02.672Z,13.55
2022-11-19T13:42:37.416Z,13.40
2022-11-19T13:43:58.358Z,13.32
2022-11-19T13:45:00.199Z,12.43
2022-11-19T13:46:12.183Z,13.18
2022-11-19T13:47:20.077Z,14.48
2022-11-19T13:48:26.672Z,12.70
2022-11-19T13:49:34.284Z,12.23
2022-11-19T13:50:41.618Z,11.65
2022-11-19T13:51:46.577Z,13.40
2022-11-19T13:52:54.999Z,12.95
2022-11-19T13:54:03.027Z,12.75
2022-11-19T13:55:27.467Z,11.82
2022-11-19T13:56:42.494Z,12.73
2022-11-19T13:57:45.301Z,11.50
2022-11-19T13:58:50.171Z,12.98
2022-11-19T13:59:58.366Z,11.73
2022-11-19T14:01:17.333Z,12.93
2022-11-19T14:02:41.858Z,14.57
2022-11-19T14:04:00.149Z,11.75
2022-11-19T14:05:50.372Z,12.35
2022-11-19T14:07:13.426Z,11.45
2022-11-19T14:08:26.568Z,12.45
2022-11-19T14:09:37.664Z,11.88
2022-11-19T14:10:46.878Z,13.52
2022-11-19T14:12:08.028Z,13.30
2022-11-19T14:13:42.959Z,11.88
2022-11-19T14:15:17.422Z,12.00
2022-11-19T14:16:46.270Z,11.75
2022-11-19T14:18:29.646Z,11.85
2022-11-19T14:20:07.324Z,11.50
2022-11-19T14:22:07.995Z,12.23
2022-11-19T14:24:03.219Z,10.55
2022-11-19T14:25:26.742Z,11.35
2022-11-19T14:27:15.523Z,10.80